Time;durP1;ratioP1;P1;durP2;ratioP2;P2;SDS_P1;SDS_P2;PMS_P1;PMS_P2;Temp;Humidity;BMP_temperature;BMP_pressure;BME280_temperature;BME280_humidity;BME280_pressure;Samples;Min_cycle;Max_cycle;Signal;HPM_P1;HPM_P2
2021/08/18 00:00:41;;;;;;;;;;;13.30;95.80;;;;;;5043987;28;20415;-68
2021/08/18 00:03:07;;;;;;;;;;;13.30;95.70;;;;;;5050790;28;19909;-71
2021/08/18 00:05:33;;;;;;;;;;;13.30;95.70;;;;;;5042290;28;19916;-72
2021/08/18 00:08:00;;;;;;;;;;;13.40;95.70;;;;;;5042395;28;19920;-71
2021/08/18 00:10:26;;;;;;;;;;;13.40;95.70;;;;;;5043456;28;19963;-71
2021/08/18 00:12:51;;;;;;;;;;;13.40;95.60;;;;;;5043496;28;19909;-71
2021/08/18 00:15:17;;;;;;;;;;;13.40;95.60;;;;;;5043634;28;19920;-71
2021/08/18 00:17:43;;;;;;;;;;;13.40;95.60;;;;;;5043320;28;19920;-71
2021/08/18 00:20:09;;;;;;;;;;;13.50;95.70;;;;;;5043778;28;19995;-71
2021/08/18 00:22:34;;;;;;;;;;;13.50;95.80;;;;;;5043125;28;20004;-71
2021/08/18 00:25:00;;;;;;;;;;;13.50;95.70;;;;;;5043524;28;19913;-71
2021/08/18 00:27:25;;;;;;;;;;;13.50;95.70;;;;;;5043250;28;19913;-71
2021/08/18 00:29:51;;;;;;;;;;;13.50;95.70;;;;;;5043474;28;19913;-71
2021/08/18 00:32:16;;;;;;;;;;;13.60;95.70;;;;;;5043480;28;19983;-71
2021/08/18 00:34:42;;;;;;;;;;;13.60;95.70;;;;;;5043356;28;20387;-71
2021/08/18 00:37:07;;;;;;;;;;;13.60;95.90;;;;;;5043090;28;19913;-71
2021/08/18 00:39:32;;;;;;;;;;;13.60;95.70;;;;;;5043158;28;19913;-72
2021/08/18 00:41:58;;;;;;;;;;;13.70;95.70;;;;;;5043061;28;19913;-72
2021/08/18 00:44:24;;;;;;;;;;;13.70;95.70;;;;;;5042826;28;20030;-71
2021/08/18 00:46:50;;;;;;;;;;;13.70;95.70;;;;;;5043074;28;19917;-71
2021/08/18 00:49:16;;;;;;;;;;;13.70;95.70;;;;;;5043620;28;20003;-71
2021/08/18 00:51:42;;;;;;;;;;;13.70;95.70;;;;;;5041372;28;19920;-71
2021/08/18 00:54:07;;;;;;;;;;;13.80;95.70;;;;;;5042660;28;19913;-71
2021/08/18 00:56:33;;;;;;;;;;;13.80;95.70;;;;;;5049426;28;19924;-71
2021/08/18 00:58:58;;;;;;;;;;;13.80;95.70;;;;;;5049779;28;20441;-71
2021/08/18 01:01:24;;;;;;;;;;;13.90;95.70;;;;;;5042680;28;19916;-72
2021/08/18 01:03:49;;;;;;;;;;;13.90;95.60;;;;;;5042632;28;19909;-72
2021/08/18 01:06:14;;;;;;;;;;;13.90;95.60;;;;;;5042946;28;19909;-72
2021/08/18 01:08:40;;;;;;;;;;;13.90;95.50;;;;;;5041221;28;19910;-72
2021/08/18 01:11:05;;;;;;;;;;;13.90;95.50;;;;;;5042823;28;20364;-72
2021/08/18 01:13:31;;;;;;;;;;;13.90;95.50;;;;;;5042896;28;19909;-72
2021/08/18 01:15:57;;;;;;;;;;;14.00;95.60;;;;;;5042526;28;19913;-72
2021/08/18 01:18:23;;;;;;;;;;;14.00;95.60;;;;;;5042395;28;19916;-72
2021/08/18 01:20:48;;;;;;;;;;;14.00;95.60;;;;;;5042508;28;20323;-72
2021/08/18 01:23:14;;;;;;;;;;;14.00;95.60;;;;;;5042428;28;19956;-72
2021/08/18 01:25:40;;;;;;;;;;;14.10;95.60;;;;;;5042195;28;20269;-72
2021/08/18 01:28:06;;;;;;;;;;;14.00;95.70;;;;;;5042594;28;19909;-72
2021/08/18 01:30:33;;;;;;;;;;;14.00;95.70;;;;;;5042656;28;19909;-72
2021/08/18 01:33:04;;;;;;;;;;;14.10;95.70;;;;;;5041951;28;19925;-72
2021/08/18 01:35:31;;;;;;;;;;;14.10;95.70;;;;;;5042372;28;19909;-72
2021/08/18 01:37:57;;;;;;;;;;;14.10;95.80;;;;;;5041961;28;19919;-72
2021/08/18 01:40:23;;;;;;;;;;;14.10;95.70;;;;;;5042123;28;19991;-68
2021/08/18 01:42:49;;;;;;;;;;;14.10;95.80;;;;;;5042039;28;20368;-68
2021/08/18 01:45:19;;;;;;;;;;;14.10;95.90;;;;;;5042179;28;19952;-68
2021/08/18 01:47:44;;;;;;;;;;;14.20;95.90;;;;;;5048770;28;20373;-72
2021/08/18 01:50:10;;;;;;;;;;;14.20;95.80;;;;;;5041824;28;19959;-72
2021/08/18 01:52:35;;;;;;;;;;;14.20;95.90;;;;;;5041288;28;20019;-72
2021/08/18 01:55:01;;;;;;;;;;;14.20;95.90;;;;;;5041592;28;19909;-72
2021/08/18 01:57:27;;;;;;;;;;;14.20;95.90;;;;;;5056899;28;19923;-78
2021/08/18 01:59:52;;;;;;;;;;;14.20;96.00;;;;;;5041884;28;19912;-77
2021/08/18 02:02:18;;;;;;;;;;;14.20;96.00;;;;;;5041768;28;19909;-77
2021/08/18 02:04:43;;;;;;;;;;;14.20;96.10;;;;;;5041435;28;19917;-77
2021/08/18 02:07:09;;;;;;;;;;;14.20;96.30;;;;;;5048201;28;19919;-77
2021/08/18 02:09:34;;;;;;;;;;;14.20;96.40;;;;;;5041409;28;19920;-77
2021/08/18 02:12:00;;;;;;;;;;;14.20;96.60;;;;;;5041300;28;19921;-76
2021/08/18 02:14:25;;;;;;;;;;;14.10;96.60;;;;;;5041109;28;19956;-77
2021/08/18 02:16:50;;;;;;;;;;;14.10;96.80;;;;;;5041542;28;19913;-76
2021/08/18 02:19:16;;;;;;;;;;;14.10;96.60;;;;;;5039988;28;19908;-77
2021/08/18 02:21:41;;;;;;;;;;;14.10;96.80;;;;;;5040681;28;19920;-76
2021/08/18 02:24:07;;;;;;;;;;;14.10;96.90;;;;;;5041124;28;19917;-77
2021/08/18 02:26:32;;;;;;;;;;;14.10;97.10;;;;;;5041245;28;19909;-76
2021/08/18 02:28:58;;;;;;;;;;;14.00;97.20;;;;;;5047809;28;19917;-76
2021/08/18 02:31:27;;;;;;;;;;;14.00;97.10;;;;;;5041408;28;19913;-76
2021/08/18 02:33:52;;;;;;;;;;;14.10;97.20;;;;;;5047799;28;20391;-76
2021/08/18 02:36:18;;;;;;;;;;;14.10;97.20;;;;;;5056250;28;19919;-76
2021/08/18 02:38:43;;;;;;;;;;;14.10;97.20;;;;;;5055805;28;20011;-77
2021/08/18 02:41:08;;;;;;;;;;;14.10;97.10;;;;;;5040877;28;19971;-76
2021/08/18 02:43:34;;;;;;;;;;;14.10;97.10;;;;;;5040723;28;19963;-76
2021/08/18 02:45:59;;;;;;;;;;;14.10;97.10;;;;;;5040887;28;20427;-76
2021/08/18 02:48:25;;;;;;;;;;;14.10;97.20;;;;;;5040626;28;19999;-76
2021/08/18 02:50:50;;;;;;;;;;;14.00;97.10;;;;;;5040671;28;20383;-78
2021/08/18 02:53:16;;;;;;;;;;;14.10;97.20;;;;;;5040797;28;19908;-76
2021/08/18 02:55:41;;;;;;;;;;;14.10;97.10;;;;;;5040470;28;19920;-73
2021/08/18 02:58:07;;;;;;;;;;;14.10;97.10;;;;;;5040864;28;19913;-72
2021/08/18 03:00:32;;;;;;;;;;;14.10;97.10;;;;;;5040530;28;20730;-72
2021/08/18 03:02:57;;;;;;;;;;;14.10;97.10;;;;;;5040645;28;19932;-72
2021/08/18 03:05:23;;;;;;;;;;;14.00;97.10;;;;;;5040380;28;19912;-72
2021/08/18 03:07:48;;;;;;;;;;;14.00;97.10;;;;;;5040586;28;20380;-72
2021/08/18 03:10:14;;;;;;;;;;;14.00;97.20;;;;;;5040444;28;20333;-76
2021/08/18 03:12:39;;;;;;;;;;;14.00;97.20;;;;;;5040368;28;20418;-77
2021/08/18 03:15:05;;;;;;;;;;;14.00;97.20;;;;;;5040530;28;20413;-76
2021/08/18 03:17:31;;;;;;;;;;;13.90;97.30;;;;;;5046876;28;19955;-77
2021/08/18 03:19:56;;;;;;;;;;;13.90;97.30;;;;;;5040242;28;19970;-76
2021/08/18 03:22:22;;;;;;;;;;;14.00;97.30;;;;;;5040209;28;19913;-77
2021/08/18 03:24:47;;;;;;;;;;;14.00;97.40;;;;;;5040117;28;19917;-76
2021/08/18 03:27:13;;;;;;;;;;;14.00;97.30;;;;;;5040700;28;20426;-76
2021/08/18 03:29:38;;;;;;;;;;;14.00;97.30;;;;;;5040216;28;20295;-76
2021/08/18 03:32:04;;;;;;;;;;;13.90;97.40;;;;;;5041113;28;19913;-76
2021/08/18 03:34:29;;;;;;;;;;;13.90;97.50;;;;;;5044267;28;19909;-77
2021/08/18 03:36:55;;;;;;;;;;;13.90;97.50;;;;;;5044298;28;19917;-76
2021/08/18 03:39:20;;;;;;;;;;;13.90;97.50;;;;;;5044477;28;19909;-76
2021/08/18 03:41:46;;;;;;;;;;;13.90;97.60;;;;;;5044179;28;20391;-76
2021/08/18 03:44:11;;;;;;;;;;;13.90;97.70;;;;;;5044551;28;19912;-76
2021/08/18 03:46:37;;;;;;;;;;;13.90;97.70;;;;;;5044043;28;20369;-76
2021/08/18 03:49:02;;;;;;;;;;;13.90;97.80;;;;;;5044218;28;19913;-76
2021/08/18 03:51:27;;;;;;;;;;;13.90;97.70;;;;;;5042634;28;19908;-76
2021/08/18 03:53:53;;;;;;;;;;;13.90;97.70;;;;;;5050874;28;19944;-76
2021/08/18 03:56:18;;;;;;;;;;;13.90;97.80;;;;;;5043889;28;19912;-71
2021/08/18 03:58:44;;;;;;;;;;;13.90;97.70;;;;;;5042512;28;19913;-71
2021/08/18 04:01:09;;;;;;;;;;;13.90;97.70;;;;;;5043741;28;19920;-72
2021/08/18 04:03:36;;;;;;;;;;;14.00;97.80;;;;;;5043781;28;19909;-72
2021/08/18 04:06:02;;;;;;;;;;;14.00;97.70;;;;;;5043869;28;20375;-72
2021/08/18 04:08:27;;;;;;;;;;;14.00;97.70;;;;;;5043785;28;19947;-72
2021/08/18 04:10:53;;;;;;;;;;;14.00;97.70;;;;;;5043551;28;20145;-72
2021/08/18 04:13:18;;;;;;;;;;;14.00;97.70;;;;;;5043918;28;19935;-72
2021/08/18 04:15:44;;;;;;;;;;;14.00;97.70;;;;;;5043633;28;19990;-72
2021/08/18 04:18:11;;;;;;;;;;;14.00;97.80;;;;;;5043584;28;20395;-72
2021/08/18 04:20:37;;;;;;;;;;;14.00;97.80;;;;;;5042955;28;19936;-72
2021/08/18 04:23:03;;;;;;;;;;;14.00;97.80;;;;;;5043568;28;20312;-72
2021/08/18 04:25:29;;;;;;;;;;;14.10;97.80;;;;;;5043273;28;20376;-72
2021/08/18 04:27:54;;;;;;;;;;;14.10;97.70;;;;;;5058699;28;19913;-72
2021/08/18 04:30:20;;;;;;;;;;;14.10;97.70;;;;;;5041965;28;19920;-72
2021/08/18 04:32:46;;;;;;;;;;;14.10;97.70;;;;;;5043002;28;19921;-72
2021/08/18 04:35:12;;;;;;;;;;;14.10;97.70;;;;;;5043791;28;19913;-72
2021/08/18 04:37:38;;;;;;;;;;;14.10;97.80;;;;;;5043235;28;19924;-73
2021/08/18 04:40:04;;;;;;;;;;;14.20;97.80;;;;;;5057827;28;19913;-72
2021/08/18 04:42:33;;;;;;;;;;;14.20;97.80;;;;;;5043312;28;19920;-72
2021/08/18 04:44:59;;;;;;;;;;;14.10;97.90;;;;;;5041799;28;19910;-73
2021/08/18 04:47:24;;;;;;;;;;;14.20;97.90;;;;;;5042983;28;19916;-72
2021/08/18 04:49:49;;;;;;;;;;;14.20;98.00;;;;;;5041391;28;19909;-77
2021/08/18 04:52:15;;;;;;;;;;;14.20;97.80;;;;;;5042849;28;19913;-77
2021/08/18 04:54:40;;;;;;;;;;;14.30;97.80;;;;;;5043267;28;19913;-77
2021/08/18 04:57:06;;;;;;;;;;;14.30;97.90;;;;;;5042958;28;19917;-73
2021/08/18 04:59:31;;;;;;;;;;;14.30;97.90;;;;;;5042587;28;19913;-71
2021/08/18 05:01:57;;;;;;;;;;;14.30;97.90;;;;;;5042835;28;19909;-71
2021/08/18 05:04:22;;;;;;;;;;;14.30;97.90;;;;;;5042718;28;19909;-71
2021/08/18 05:06:48;;;;;;;;;;;14.40;97.80;;;;;;5042645;28;19909;-68
2021/08/18 05:09:13;;;;;;;;;;;14.40;97.80;;;;;;5042708;28;19967;-68
2021/08/18 05:11:38;;;;;;;;;;;14.40;97.80;;;;;;5042326;28;20340;-77
2021/08/18 05:14:04;;;;;;;;;;;14.50;97.80;;;;;;5042774;28;20265;-77
2021/08/18 05:16:29;;;;;;;;;;;14.50;97.80;;;;;;5042323;28;19912;-77
2021/08/18 05:18:55;;;;;;;;;;;14.50;97.80;;;;;;5042713;28;19916;-77
2021/08/18 05:21:20;;;;;;;;;;;14.60;97.70;;;;;;5042305;28;19908;-68
2021/08/18 05:23:46;;;;;;;;;;;14.60;97.80;;;;;;5041203;28;19936;-68
2021/08/18 05:26:11;;;;;;;;;;;14.60;98.00;;;;;;5042266;28;19913;-68
2021/08/18 05:28:36;;;;;;;;;;;14.60;97.70;;;;;;5042002;28;19909;-68
2021/08/18 05:31:02;;;;;;;;;;;14.70;97.60;;;;;;5042492;28;20284;-68
2021/08/18 05:33:27;;;;;;;;;;;14.70;97.50;;;;;;5041925;28;20384;-68
2021/08/18 05:35:53;;;;;;;;;;;14.80;97.40;;;;;;5042322;28;19922;-71
2021/08/18 05:38:18;;;;;;;;;;;14.80;97.40;;;;;;5042058;28;19913;-71
2021/08/18 05:40:43;;;;;;;;;;;14.80;97.50;;;;;;5041976;28;19917;-77
2021/08/18 05:43:13;;;;;;;;;;;14.90;97.40;;;;;;5041784;28;19913;-77
2021/08/18 05:45:38;;;;;;;;;;;14.90;97.30;;;;;;5041999;28;19909;-77
2021/08/18 05:48:04;;;;;;;;;;;14.90;97.30;;;;;;5040506;28;19920;-77
2021/08/18 05:50:29;;;;;;;;;;;15.00;97.20;;;;;;5042279;28;20018;-72
2021/08/18 05:52:55;;;;;;;;;;;15.00;97.20;;;;;;5041627;28;19959;-68
2021/08/18 05:55:20;;;;;;;;;;;15.10;97.20;;;;;;5040886;28;19909;-68
2021/08/18 05:57:46;;;;;;;;;;;15.00;97.10;;;;;;5048175;28;20364;-68
2021/08/18 06:00:11;;;;;;;;;;;15.10;97.10;;;;;;5056462;28;20253;-72
2021/08/18 06:02:37;;;;;;;;;;;15.10;97.00;;;;;;5041410;28;20381;-72
2021/08/18 06:05:02;;;;;;;;;;;15.10;97.10;;;;;;5041612;28;19912;-76
2021/08/18 06:07:28;;;;;;;;;;;15.10;97.00;;;;;;5041239;28;19936;-71
2021/08/18 06:09:53;;;;;;;;;;;15.10;97.00;;;;;;5041628;28;20000;-68
2021/08/18 06:12:19;;;;;;;;;;;15.10;96.90;;;;;;5041195;28;19913;-72
2021/08/18 06:14:44;;;;;;;;;;;15.20;97.00;;;;;;5041523;28;19913;-71
2021/08/18 06:17:09;;;;;;;;;;;15.30;96.90;;;;;;5041463;28;19913;-76
2021/08/18 06:19:35;;;;;;;;;;;15.30;96.90;;;;;;5041106;28;19920;-76
2021/08/18 06:22:01;;;;;;;;;;;15.30;96.90;;;;;;5041032;28;19948;-77
2021/08/18 06:24:28;;;;;;;;;;;15.30;96.80;;;;;;5040932;28;20375;-70
2021/08/18 06:26:55;;;;;;;;;;;15.40;96.80;;;;;;5041229;28;20400;-70
2021/08/18 06:29:21;;;;;;;;;;;15.40;96.80;;;;;;5041223;28;19909;-70
2021/08/18 06:31:47;;;;;;;;;;;15.50;96.70;;;;;;5040645;28;19909;-70
2021/08/18 06:34:12;;;;;;;;;;;15.60;96.70;;;;;;5040997;28;19923;-72
2021/08/18 06:36:37;;;;;;;;;;;15.70;96.70;;;;;;5040848;28;19917;-71
2021/08/18 06:39:03;;;;;;;;;;;15.70;96.60;;;;;;5040924;28;19959;-70
2021/08/18 06:41:28;;;;;;;;;;;15.80;96.60;;;;;;5040869;28;19992;-71
2021/08/18 06:43:54;;;;;;;;;;;15.90;96.50;;;;;;5040826;28;20371;-71
2021/08/18 06:46:19;;;;;;;;;;;15.90;96.40;;;;;;5040950;28;20498;-71
2021/08/18 06:48:45;;;;;;;;;;;16.00;96.30;;;;;;5040710;28;19909;-71
2021/08/18 06:51:10;;;;;;;;;;;16.10;96.30;;;;;;5040886;28;19909;-71
2021/08/18 06:53:35;;;;;;;;;;;16.10;96.10;;;;;;5040298;28;20395;-68
2021/08/18 06:56:01;;;;;;;;;;;16.10;95.90;;;;;;5040593;28;19913;-68
2021/08/18 06:58:27;;;;;;;;;;;16.20;95.80;;;;;;5040469;28;19909;-77
2021/08/18 07:00:52;;;;;;;;;;;16.30;95.70;;;;;;5040560;28;19935;-76
2021/08/18 07:03:17;;;;;;;;;;;16.40;95.30;;;;;;5040411;28;19938;-76
2021/08/18 07:05:43;;;;;;;;;;;16.50;95.10;;;;;;5040560;28;19929;-71
2021/08/18 07:08:08;;;;;;;;;;;16.50;94.70;;;;;;5039636;28;20320;-71
2021/08/18 07:10:34;;;;;;;;;;;16.50;94.20;;;;;;5040457;28;20031;-72
2021/08/18 07:12:59;;;;;;;;;;;16.50;94.30;;;;;;5040596;28;19913;-68
2021/08/18 07:15:25;;;;;;;;;;;16.60;94.20;;;;;;5038801;28;19909;-68
2021/08/18 07:17:50;;;;;;;;;;;16.60;94.00;;;;;;5040620;28;19917;-71
2021/08/18 07:20:16;;;;;;;;;;;16.70;94.00;;;;;;5040452;28;19909;-71
2021/08/18 07:22:41;;;;;;;;;;;16.70;93.60;;;;;;5040329;28;19947;-71
2021/08/18 07:25:07;;;;;;;;;;;16.80;93.30;;;;;;5055501;28;19996;-70
2021/08/18 07:27:32;;;;;;;;;;;16.90;93.40;;;;;;5040184;28;20474;-72
2021/08/18 07:29:57;;;;;;;;;;;16.90;93.30;;;;;;5040017;28;20281;-72
2021/08/18 07:32:23;;;;;;;;;;;17.00;92.90;;;;;;5040038;28;19913;-72
2021/08/18 07:34:48;;;;;;;;;;;17.00;92.70;;;;;;5040201;28;19991;-72
2021/08/18 07:37:16;;;;;;;;;;;17.10;92.00;;;;;;5040280;28;19923;-77
2021/08/18 07:39:42;;;;;;;;;;;17.10;92.00;;;;;;5039859;28;20388;-77
2021/08/18 07:42:07;;;;;;;;;;;17.10;92.00;;;;;;5039923;28;19944;-77
2021/08/18 07:44:33;;;;;;;;;;;17.10;92.20;;;;;;5040269;28;19916;-71
2021/08/18 07:46:58;;;;;;;;;;;17.10;92.00;;;;;;5040263;28;20372;-70
2021/08/18 07:49:24;;;;;;;;;;;17.10;91.70;;;;;;5040011;28;19913;-70
2021/08/18 07:51:49;;;;;;;;;;;17.10;91.80;;;;;;5040121;28;20434;-77
2021/08/18 07:54:14;;;;;;;;;;;17.10;91.60;;;;;;5040067;28;19963;-77
2021/08/18 07:56:40;;;;;;;;;;;17.20;91.60;;;;;;5039993;28;20018;-73
2021/08/18 07:59:05;;;;;;;;;;;17.30;91.60;;;;;;5039849;28;20011;-72
2021/08/18 08:01:31;;;;;;;;;;;17.40;91.30;;;;;;5040182;28;19996;-72
2021/08/18 08:03:56;;;;;;;;;;;17.50;91.40;;;;;;5039974;28;19909;-72
2021/08/18 08:06:22;;;;;;;;;;;17.70;90.80;;;;;;5039886;28;19909;-71
2021/08/18 08:08:47;;;;;;;;;;;17.80;90.50;;;;;;5039878;28;19920;-70
2021/08/18 08:11:13;;;;;;;;;;;17.80;90.00;;;;;;5038424;28;19908;-72
2021/08/18 08:13:38;;;;;;;;;;;17.90;90.20;;;;;;5039804;28;19975;-73
2021/08/18 08:16:04;;;;;;;;;;;18.00;89.40;;;;;;5039738;28;20442;-72
2021/08/18 08:18:29;;;;;;;;;;;18.10;89.30;;;;;;5041598;28;19928;-73
2021/08/18 08:20:54;;;;;;;;;;;18.10;88.80;;;;;;5043426;28;19909;-68
2021/08/18 08:23:20;;;;;;;;;;;18.20;88.60;;;;;;5050164;28;19966;-68
2021/08/18 08:25:45;;;;;;;;;;;18.30;89.00;;;;;;5043510;28;19952;-68
2021/08/18 08:28:11;;;;;;;;;;;18.30;88.10;;;;;;5058837;28;20034;-68
2021/08/18 08:30:36;;;;;;;;;;;18.30;88.20;;;;;;5042914;28;19928;-68
2021/08/18 08:33:02;;;;;;;;;;;18.30;87.40;;;;;;5043268;28;19952;-68
2021/08/18 08:35:29;;;;;;;;;;;18.30;87.40;;;;;;5042940;28;19913;-68
2021/08/18 08:37:54;;;;;;;;;;;18.30;87.00;;;;;;5049961;28;19913;-73
2021/08/18 08:40:19;;;;;;;;;;;18.30;87.40;;;;;;5042758;28;19916;-77
2021/08/18 08:42:45;;;;;;;;;;;18.20;86.90;;;;;;5042874;28;19917;-77
2021/08/18 08:45:11;;;;;;;;;;;18.30;86.10;;;;;;5043014;28;20391;-73
2021/08/18 08:47:37;;;;;;;;;;;18.20;86.50;;;;;;5043201;28;20312;-73
2021/08/18 08:50:03;;;;;;;;;;;18.20;86.30;;;;;;5058134;28;19926;-77
2021/08/18 08:52:28;;;;;;;;;;;18.20;86.20;;;;;;5042519;28;19913;-71
2021/08/18 08:54:54;;;;;;;;;;;18.30;86.60;;;;;;5042930;28;19932;-70
2021/08/18 08:57:19;;;;;;;;;;;18.30;86.60;;;;;;5042771;28;19917;-70
2021/08/18 08:59:45;;;;;;;;;;;18.40;86.50;;;;;;5042671;28;19909;-77
2021/08/18 09:02:12;;;;;;;;;;;18.50;85.80;;;;;;5042433;28;20265;-73
2021/08/18 09:04:38;;;;;;;;;;;18.50;85.00;;;;;;5042508;28;19909;-73
2021/08/18 09:07:04;;;;;;;;;;;18.60;85.50;;;;;;5042604;28;19908;-73
2021/08/18 09:09:30;;;;;;;;;;;18.80;84.50;;;;;;5042434;28;20123;-73
2021/08/18 09:12:07;;;;;;;;;;;18.80;84.00;;;;;;5042238;28;20391;-73
2021/08/18 09:14:33;;;;;;;;;;;18.90;84.00;;;;;;5042522;28;19913;-71
2021/08/18 09:16:58;;;;;;;;;;;19.10;82.90;;;;;;5042249;28;19967;-71
2021/08/18 09:19:28;;;;;;;;;;;19.10;83.30;;;;;;5042645;28;20047;-71
2021/08/18 09:21:54;;;;;;;;;;;19.10;83.10;;;;;;5042248;28;19991;-70
2021/08/18 09:24:20;;;;;;;;;;;19.10;83.20;;;;;;5042299;28;20380;-71
2021/08/18 09:26:48;;;;;;;;;;;19.10;83.80;;;;;;5040809;28;19920;-68
2021/08/18 09:29:27;;;;;;;;;;;19.10;83.40;;;;;;5041834;28;19909;-68
2021/08/18 09:31:52;;;;;;;;;;;19.00;83.40;;;;;;5041538;28;20419;-68
2021/08/18 09:34:18;;;;;;;;;;;18.80;84.10;;;;;;5041944;28;19996;-68
2021/08/18 09:36:43;;;;;;;;;;;18.70;84.00;;;;;;5041939;28;19913;-68
2021/08/18 09:39:22;;;;;;;;;;;18.60;84.50;;;;;;5042183;28;19908;-77
2021/08/18 09:41:47;;;;;;;;;;;18.60;84.70;;;;;;5041467;28;19914;-78
2021/08/18 09:44:13;;;;;;;;;;;18.60;84.40;;;;;;5041927;28;19931;-71
2021/08/18 09:46:38;;;;;;;;;;;18.60;84.20;;;;;;5056838;28;19956;-68
2021/08/18 09:49:08;;;;;;;;;;;18.60;84.40;;;;;;5056851;28;19917;-68
2021/08/18 09:51:33;;;;;;;;;;;18.60;84.10;;;;;;5041642;28;19909;-68
2021/08/18 09:54:10;;;;;;;;;;;18.60;84.10;;;;;;5041697;28;19913;-73
2021/08/18 09:56:47;;;;;;;;;;;18.70;83.20;;;;;;5041348;28;19916;-74
2021/08/18 09:59:12;;;;;;;;;;;18.80;83.10;;;;;;5041768;28;20384;-73
2021/08/18 10:01:38;;;;;;;;;;;18.90;82.90;;;;;;5041240;28;20034;-73
2021/08/18 10:04:04;;;;;;;;;;;18.90;82.60;;;;;;5040487;28;19944;-78
2021/08/18 10:06:30;;;;;;;;;;;18.90;82.80;;;;;;5041141;28;19964;-78
2021/08/18 10:08:56;;;;;;;;;;;18.70;83.10;;;;;;5041796;28;19912;-78
2021/08/18 10:11:23;;;;;;;;;;;18.60;83.80;;;;;;5041029;28;19932;-71
2021/08/18 10:13:48;;;;;;;;;;;18.40;85.90;;;;;;5041768;28;20287;-71
2021/08/18 10:16:14;;;;;;;;;;;18.20;87.10;;;;;;5041430;28;19912;-71
2021/08/18 10:18:40;;;;;;;;;;;18.00;88.80;;;;;;5041270;28;19945;-70
2021/08/18 10:21:08;;;;;;;;;;;17.90;89.80;;;;;;5041075;28;19913;-73
2021/08/18 10:23:59;;;;;;;;;;;17.80;90.40;;;;;;5041171;28;20447;-73
2021/08/18 10:26:34;;;;;;;;;;;17.90;90.60;;;;;;5040822;28;19912;-73
2021/08/18 10:29:13;;;;;;;;;;;18.00;90.50;;;;;;5041110;28;19996;-72
2021/08/18 10:31:45;;;;;;;;;;;18.10;90.40;;;;;;5040823;28;19945;-73
2021/08/18 10:34:30;;;;;;;;;;;18.30;90.10;;;;;;5041240;28;19925;-71
2021/08/18 10:36:56;;;;;;;;;;;18.50;90.00;;;;;;5041043;28;20296;-73
2021/08/18 10:39:22;;;;;;;;;;;18.70;89.40;;;;;;5040908;28;19908;-73
2021/08/18 10:41:56;;;;;;;;;;;18.70;88.70;;;;;;5040293;28;19920;-73
2021/08/18 10:44:35;;;;;;;;;;;18.80;88.50;;;;;;5040588;28;20075;-73
2021/08/18 10:47:10;;;;;;;;;;;18.80;88.00;;;;;;5040829;28;19909;-68
2021/08/18 10:49:35;;;;;;;;;;;18.60;88.10;;;;;;5040888;28;20364;-68
2021/08/18 10:52:01;;;;;;;;;;;18.60;88.50;;;;;;5040455;28;19916;-68
2021/08/18 10:54:29;;;;;;;;;;;18.70;88.40;;;;;;5055424;28;19919;-69
2021/08/18 10:56:58;;;;;;;;;;;18.70;88.40;;;;;;5038684;28;19916;-69
2021/08/18 10:59:36;;;;;;;;;;;18.80;88.00;;;;;;5047438;28;19992;-68
2021/08/18 11:02:08;;;;;;;;;;;18.90;88.10;;;;;;5040531;28;19909;-68
2021/08/18 11:04:43;;;;;;;;;;;19.10;87.00;;;;;;5055635;28;19913;-73
2021/08/18 11:07:09;;;;;;;;;;;19.20;85.90;;;;;;5040505;28;19956;-74
2021/08/18 11:09:55;;;;;;;;;;;19.40;85.20;;;;;;5040268;28;20380;-73
2021/08/18 11:12:38;;;;;;;;;;;19.60;83.60;;;;;;5037697;28;19915;-73
2021/08/18 11:15:19;;;;;;;;;;;19.60;83.20;;;;;;5040498;28;19961;-73
2021/08/18 11:17:45;;;;;;;;;;;19.70;82.90;;;;;;5040072;28;19912;-73
2021/08/18 11:20:12;;;;;;;;;;;19.70;81.80;;;;;;5040403;28;19913;-73
2021/08/18 11:22:37;;;;;;;;;;;19.70;82.10;;;;;;5055344;28;19913;-73
2021/08/18 11:25:03;;;;;;;;;;;19.70;82.10;;;;;;5040539;28;19921;-73
2021/08/18 11:27:29;;;;;;;;;;;19.70;81.20;;;;;;5040131;28;19917;-69
2021/08/18 11:29:55;;;;;;;;;;;19.60;81.20;;;;;;5038940;28;19944;-69
2021/08/18 11:32:24;;;;;;;;;;;19.60;82.00;;;;;;5039992;28;20387;-69
2021/08/18 11:34:49;;;;;;;;;;;19.60;81.70;;;;;;5040460;28;20476;-71
2021/08/18 11:37:15;;;;;;;;;;;19.60;82.20;;;;;;5040206;28;19913;-71
2021/08/18 11:39:44;;;;;;;;;;;19.60;82.00;;;;;;5054678;28;20021;-71
2021/08/18 11:42:11;;;;;;;;;;;19.70;81.80;;;;;;5054905;28;19913;-71
2021/08/18 11:44:38;;;;;;;;;;;19.70;82.00;;;;;;5039973;28;19912;-71
2021/08/18 11:47:06;;;;;;;;;;;19.80;81.60;;;;;;5040118;28;19909;-71
2021/08/18 11:49:32;;;;;;;;;;;19.90;81.00;;;;;;5039833;28;19909;-71
2021/08/18 11:51:58;;;;;;;;;;;20.10;80.50;;;;;;5055613;28;19920;-69
2021/08/18 11:54:26;;;;;;;;;;;20.20;79.50;;;;;;5042737;28;19909;-78
2021/08/18 11:57:00;;;;;;;;;;;20.30;78.90;;;;;;5044113;28;20368;-78
2021/08/18 11:59:26;;;;;;;;;;;20.40;78.50;;;;;;5044080;28;19909;-78
2021/08/18 12:01:52;;;;;;;;;;;20.30;78.40;;;;;;5044054;28;20275;-78
2021/08/18 12:04:22;;;;;;;;;;;20.10;78.80;;;;;;5043552;28;19913;-78
2021/08/18 12:07:02;;;;;;;;;;;20.00;78.70;;;;;;5043573;28;19913;-78
2021/08/18 12:09:28;;;;;;;;;;;20.00;78.70;;;;;;5043592;28;19920;-78
2021/08/18 12:12:04;;;;;;;;;;;19.90;79.00;;;;;;5050410;28;20003;-78
2021/08/18 12:14:36;;;;;;;;;;;19.90;79.20;;;;;;5043688;28;19909;-78
2021/08/18 12:17:01;;;;;;;;;;;20.00;78.80;;;;;;5043600;28;19996;-79
2021/08/18 12:19:27;;;;;;;;;;;20.00;78.50;;;;;;5043531;28;20003;-78
2021/08/18 12:22:07;;;;;;;;;;;20.00;78.80;;;;;;5043455;28;20391;-78
2021/08/18 12:24:33;;;;;;;;;;;20.10;78.90;;;;;;5043085;28;19909;-78
2021/08/18 12:27:00;;;;;;;;;;;20.20;79.20;;;;;;5043805;28;20283;-78
2021/08/18 12:29:27;;;;;;;;;;;20.20;78.50;;;;;;5043385;28;19913;-78
2021/08/18 12:32:01;;;;;;;;;;;20.20;78.40;;;;;;5043363;28;19916;-71
2021/08/18 12:34:34;;;;;;;;;;;20.20;78.80;;;;;;5043120;28;19921;-71
2021/08/18 12:37:04;;;;;;;;;;;20.40;78.20;;;;;;5043112;28;20282;-71
2021/08/18 12:39:31;;;;;;;;;;;20.40;77.90;;;;;;5049868;28;19963;-78
2021/08/18 12:41:56;;;;;;;;;;;20.30;77.10;;;;;;5041970;28;19919;-78
2021/08/18 12:44:28;;;;;;;;;;;20.30;78.00;;;;;;5042957;28;19909;-78
2021/08/18 12:47:02;;;;;;;;;;;20.30;77.80;;;;;;5043152;28;19992;-78
2021/08/18 12:49:29;;;;;;;;;;;20.30;77.60;;;;;;5043138;28;20216;-78
2021/08/18 12:51:55;;;;;;;;;;;20.30;77.50;;;;;;5042937;28;20292;-78
2021/08/18 12:54:20;;;;;;;;;;;20.50;77.40;;;;;;5042974;28;19908;-78
2021/08/18 12:56:46;;;;;;;;;;;20.50;77.10;;;;;;5042882;28;20317;-78
2021/08/18 12:59:11;;;;;;;;;;;20.60;77.00;;;;;;5042640;28;19909;-78
2021/08/18 13:01:37;;;;;;;;;;;20.70;76.80;;;;;;5042557;28;20435;-78
2021/08/18 13:04:02;;;;;;;;;;;20.70;75.90;;;;;;5042370;28;20261;-78
2021/08/18 13:06:28;;;;;;;;;;;20.60;76.30;;;;;;5042607;28;19935;-78
2021/08/18 13:08:53;;;;;;;;;;;20.70;76.90;;;;;;5042586;28;20320;-74
2021/08/18 13:11:18;;;;;;;;;;;20.70;77.00;;;;;;5042830;28;19913;-73
2021/08/18 13:13:44;;;;;;;;;;;20.80;77.20;;;;;;5042675;28;20372;-73
2021/08/18 13:16:09;;;;;;;;;;;20.80;77.00;;;;;;5042453;28;20292;-74
2021/08/18 13:18:35;;;;;;;;;;;20.80;76.20;;;;;;5042489;28;19944;-73
2021/08/18 13:21:03;;;;;;;;;;;20.80;76.10;;;;;;5042142;28;19913;-73
2021/08/18 13:23:29;;;;;;;;;;;20.80;76.50;;;;;;5042189;28;19909;-74
2021/08/18 13:25:54;;;;;;;;;;;20.90;76.80;;;;;;5042305;28;19916;-73
2021/08/18 13:28:20;;;;;;;;;;;20.90;76.00;;;;;;5042540;28;19912;-73
2021/08/18 13:30:45;;;;;;;;;;;21.00;76.80;;;;;;5042051;28;19913;-73
2021/08/18 13:33:11;;;;;;;;;;;21.00;76.20;;;;;;5042133;28;19927;-73
2021/08/18 13:35:36;;;;;;;;;;;21.00;75.80;;;;;;5048845;28;19913;-74
2021/08/18 13:38:01;;;;;;;;;;;21.00;76.20;;;;;;5042335;28;19920;-74
2021/08/18 13:40:27;;;;;;;;;;;21.00;76.10;;;;;;5041715;28;19913;-74
2021/08/18 13:42:52;;;;;;;;;;;21.20;76.00;;;;;;5041697;28;19986;-74
2021/08/18 13:45:18;;;;;;;;;;;21.20;75.60;;;;;;5041962;28;20478;-73
2021/08/18 13:47:43;;;;;;;;;;;21.20;75.40;;;;;;5041985;28;19909;-78
2021/08/18 13:50:09;;;;;;;;;;;21.10;75.20;;;;;;5041860;28;19912;-78
2021/08/18 13:52:34;;;;;;;;;;;21.00;74.90;;;;;;5041833;28;19913;-79
2021/08/18 13:55:00;;;;;;;;;;;20.90;75.30;;;;;;5041768;28;19913;-79
2021/08/18 13:57:25;;;;;;;;;;;20.80;75.70;;;;;;5041628;28;19920;-78
2021/08/18 13:59:51;;;;;;;;;;;20.60;76.50;;;;;;5041423;28;20010;-79
2021/08/18 14:02:16;;;;;;;;;;;20.60;76.90;;;;;;5041547;28;19909;-78
2021/08/18 14:04:42;;;;;;;;;;;20.60;77.30;;;;;;5041297;28;19913;-78
2021/08/18 14:07:07;;;;;;;;;;;20.60;77.60;;;;;;5041565;28;19912;-79
2021/08/18 14:09:33;;;;;;;;;;;20.60;77.30;;;;;;5040062;28;19909;-79
2021/08/18 14:11:58;;;;;;;;;;;20.60;77.10;;;;;;5041331;28;19944;-79